createdAt,value
2023-04-28T00:00:14.162Z,97809.59
2023-04-28T00:05:16.729Z,97805.13
2023-04-28T00:10:18.956Z,97804.50
2023-04-28T00:15:23.271Z,97789.06
2023-04-28T00:20:25.461Z,97793.94
2023-04-28T00:25:27.636Z,97789.50
2023-04-28T00:30:32.960Z,97789.38
2023-04-28T00:35:35.145Z,97780.22
2023-04-28T00:40:39.571Z,97773.47
2023-04-28T00:45:41.940Z,97770.84
2023-04-28T00:50:48.750Z,97768.38
2023-04-28T00:55:54.315Z,97766.88
2023-04-28T01:01:04.882Z,97765.34
2023-04-28T01:06:09.734Z,97763.22
2023-04-28T01:11:14.503Z,97756.16
2023-04-28T01:16:34.087Z,97760.19
2023-04-28T01:21:37.584Z,97743.47
2023-04-28T01:26:49.798Z,97739.50
2023-04-28T01:31:51.943Z,97732.81
2023-04-28T01:36:54.116Z,97728.25
2023-04-28T01:41:56.393Z,97720.69
2023-04-28T01:47:00.841Z,97730.34
2023-04-28T01:52:03.473Z,97717.25
2023-04-28T01:57:31.965Z,97718.22
2023-04-28T02:02:37.161Z,97709.38
2023-04-28T02:07:41.552Z,97708.09
2023-04-28T02:12:43.972Z,97695.94
2023-04-28T02:17:48.261Z,97695.72
2023-04-28T02:22:50.577Z,97694.94
2023-04-28T02:27:52.752Z,97698.25
2023-04-28T02:32:55.910Z,97683.66
2023-04-28T02:37:58.107Z,97678.84
2023-04-28T02:43:00.702Z,97678.47
2023-04-28T02:48:05.284Z,97684.09
2023-04-28T02:53:07.489Z,97685.59
2023-04-28T02:58:10.186Z,97693.59
2023-04-28T03:03:12.918Z,97692.84
2023-04-28T03:08:15.310Z,97689.69
2023-04-28T03:13:18.372Z,97688.47
2023-04-28T03:18:20.642Z,97686.19
2023-04-28T03:23:22.861Z,97680.28
2023-04-28T03:28:25.201Z,97680.13
2023-04-28T03:33:27.752Z,97671.34
2023-04-28T03:38:30.976Z,97669.38
2023-04-28T03:43:37.639Z,97678.03
2023-04-28T03:49:02.464Z,97671.34
2023-04-28T03:54:05.957Z,97673.81
2023-04-28T03:59:11.889Z,97665.03
2023-04-28T04:04:14.723Z,97657.06
2023-04-28T04:09:17.429Z,97658.09
2023-04-28T04:14:19.716Z,97654.53
2023-04-28T04:19:24.155Z,97654.72
2023-04-28T04:24:29.159Z,97647.00
2023-04-28T04:29:31.841Z,97644.47
2023-04-28T04:34:36.248Z,97638.84
2023-04-28T04:39:39.329Z,97641.25
2023-04-28T04:44:41.757Z,97634.63
2023-04-28T04:49:53.378Z,97644.03
2023-04-28T04:54:58.439Z,97643.31
2023-04-28T05:00:01.103Z,97630.66
2023-04-28T05:05:16.853Z,97640.59
2023-04-28T05:10:27.582Z,97638.03
2023-04-28T05:15:32.226Z,97645.44
2023-04-28T05:21:02.566Z,97649.00
2023-04-28T05:26:05.686Z,97645.31
2023-04-28T05:31:08.294Z,97644.31
2023-04-28T05:36:11.153Z,97648.88
2023-04-28T05:41:13.660Z,97646.16
2023-04-28T05:46:29.088Z,97647.25
2023-04-28T05:51:34.220Z,97646.22
2023-04-28T05:56:37.925Z,97643.50
2023-04-28T06:01:42.346Z,97633.34
2023-04-28T06:06:44.807Z,97633.00
2023-04-28T06:11:49.850Z,97638.72
2023-04-28T06:16:55.017Z,97632.75
2023-04-28T06:21:59.686Z,97640.38
2023-04-28T06:27:02.956Z,97623.13
2023-04-28T06:32:06.218Z,97628.19
2023-04-28T06:37:08.652Z,97623.13
2023-04-28T06:42:11.017Z,97622.38
2023-04-28T06:47:17.486Z,97619.25
2023-04-28T06:52:24.892Z,97612.84
2023-04-28T06:57:36.269Z,97604.84
2023-04-28T07:02:38.764Z,97609.13
2023-04-28T07:07:41.290Z,97605.69
2023-04-28T07:12:43.600Z,97603.94
2023-04-28T07:17:45.983Z,97601.38
2023-04-28T07:22:48.270Z,97589.34
2023-04-28T07:27:50.477Z,97591.78
2023-04-28T07:32:52.854Z,97580.50
2023-04-28T07:37:55.947Z,97585.66
2023-04-28T07:42:58.093Z,97588.25
2023-04-28T07:48:00.304Z,97580.50
2023-04-28T07:53:02.587Z,97577.91
2023-04-28T07:58:05.599Z,97586.53
2023-04-28T08:03:08.023Z,97593.81
2023-04-28T08:08:10.511Z,97600.09
2023-04-28T08:13:13.099Z,97603.66
2023-04-28T08:18:15.840Z,97609.50
2023-04-28T08:23:18.012Z,97619.47
2023-04-28T08:28:20.311Z,97637.75
2023-04-28T08:33:24.048Z,97644.41
2023-04-28T08:38:27.216Z,97661.66
2023-04-28T08:43:30.330Z,97663.41
2023-04-28T08:48:41.187Z,97660.66
2023-04-28T08:59:06.823Z,97674.75
2023-04-28T09:04:14.030Z,97686.16
2023-04-28T09:09:27.035Z,97689.84
2023-04-28T09:14:33.050Z,97677.25
2023-04-28T09:19:38.194Z,97678.34
2023-04-28T09:24:43.012Z,97688.44
2023-04-28T09:29:55.863Z,97691.63
2023-04-28T09:34:58.101Z,97684.34
2023-04-28T09:40:12.487Z,97674.47
2023-04-28T09:45:16.463Z,97678.00
2023-04-28T09:50:19.124Z,97683.59
2023-04-28T09:55:21.406Z,97671.28
2023-04-28T10:00:24.424Z,97656.97
2023-04-28T10:05:26.945Z,97669.25
2023-04-28T10:10:29.814Z,97665.88
2023-04-28T10:15:33.774Z,97673.03
2023-04-28T10:20:39.361Z,97665.34
2023-04-28T10:25:43.664Z,97664.72
2023-04-28T10:31:11.181Z,97658.50
2023-04-28T10:36:55.166Z,97657.38
2023-04-28T10:41:57.585Z,97664.03
2023-04-28T10:47:10.846Z,97667.69
2023-04-28T10:52:41.112Z,97664.66
2023-04-28T10:57:43.414Z,97667.00
2023-04-28T11:02:48.031Z,97670.19
2023-04-28T11:08:31.214Z,97657.66
2023-04-28T11:13:34.639Z,97674.66
2023-04-28T11:19:05.101Z,97665.13
2023-04-28T11:24:11.475Z,97658.78
2023-04-28T11:29:15.339Z,97666.50
2023-04-28T11:34:22.692Z,97655.94
2023-04-28T11:39:33.777Z,97656.31
2023-04-28T11:44:36.373Z,97659.44
2023-04-28T11:49:47.864Z,97651.56
2023-04-28T11:55:00.392Z,97659.06
2023-04-28T12:00:22.079Z,97653.09
2023-04-28T12:05:24.417Z,97654.31
2023-04-28T12:10:26.646Z,97646.78
2023-04-28T12:15:41.466Z,97646.59
2023-04-28T12:20:43.872Z,97650.53
2023-04-28T12:25:48.259Z,97641.47
2023-04-28T12:30:51.211Z,97641.66
2023-04-28T12:35:57.479Z,97652.25
2023-04-28T12:41:00.670Z,97653.09
2023-04-28T12:46:04.274Z,97654.84
2023-04-28T12:51:06.652Z,97646.19
2023-04-28T12:56:08.947Z,97651.44
2023-04-28T13:01:11.263Z,97651.19
2023-04-28T13:06:13.566Z,97651.69
2023-04-28T13:11:22.670Z,97617.44
2023-04-28T13:16:29.067Z,97609.44
2023-04-28T13:21:32.161Z,97616.66
2023-04-28T13:26:34.715Z,97623.97
2023-04-28T13:31:37.304Z,97619.91
2023-04-28T13:36:39.496Z,97621.34
2023-04-28T13:41:41.975Z,97630.00
2023-04-28T13:46:44.214Z,97635.44
2023-04-28T13:51:46.386Z,97631.19
2023-04-28T13:56:48.907Z,97623.03
2023-04-28T14:01:52.064Z,97626.13
2023-04-28T14:06:54.473Z,97616.91
2023-04-28T14:11:57.012Z,97620.47
2023-04-28T14:16:59.651Z,97613.09
2023-04-28T14:22:02.877Z,97622.72
2023-04-28T14:27:05.096Z,97597.28
2023-04-28T14:32:07.428Z,97601.41
2023-04-28T14:37:10.071Z,97591.81
2023-04-28T14:42:12.570Z,97577.41
2023-04-28T14:47:15.188Z,97591.72
2023-04-28T14:52:18.045Z,97594.31
2023-04-28T14:57:20.462Z,97584.97
2023-04-28T15:02:28.616Z,97593.28
2023-04-28T15:07:33.916Z,97590.25
2023-04-28T15:12:36.097Z,97598.13
2023-04-28T15:17:38.352Z,97593.72
2023-04-28T15:22:41.205Z,97593.97
2023-04-28T15:27:43.667Z,97587.19
2023-04-28T15:32:45.984Z,97590.31
2023-04-28T15:37:48.352Z,97596.69
2023-04-28T15:42:53.272Z,97584.91
2023-04-28T15:47:55.871Z,97581.38
2023-04-28T15:52:58.313Z,97576.31
2023-04-28T15:58:01.460Z,97565.72
2023-04-28T16:03:03.870Z,97560.06
2023-04-28T16:08:06.223Z,97553.72
2023-04-28T16:13:11.804Z,97551.50
2023-04-28T16:18:14.353Z,97561.19
2023-04-28T16:23:16.800Z,97557.44
2023-04-28T16:28:19.148Z,97560.78
2023-04-28T16:33:21.463Z,97561.81
2023-04-28T16:38:23.845Z,97564.66
2023-04-28T16:43:29.061Z,97559.13
2023-04-28T16:48:31.342Z,97565.00
2023-04-28T16:53:36.712Z,97556.03
2023-04-28T16:58:38.982Z,97561.22
2023-04-28T17:03:42.335Z,97558.97
2023-04-28T17:08:44.726Z,97553.00
2023-04-28T17:13:47.541Z,97551.88
2023-04-28T17:18:49.921Z,97560.19
2023-04-28T17:23:52.121Z,97532.97
2023-04-28T17:28:58.936Z,97545.09
2023-04-28T17:34:01.304Z,97551.44
2023-04-28T17:39:04.722Z,97560.91
2023-04-28T17:44:07.021Z,97557.47
2023-04-28T17:49:09.369Z,97554.06
2023-04-28T17:54:11.632Z,97560.88
2023-04-28T17:59:16.172Z,97554.44
2023-04-28T18:04:18.333Z,97550.47
2023-04-28T18:09:20.554Z,97556.16
2023-04-28T18:14:23.332Z,97560.13
2023-04-28T18:19:30.485Z,97567.50
2023-04-28T18:24:32.639Z,97576.97
2023-04-28T18:29:34.884Z,97586.25
2023-04-28T18:34:37.015Z,97599.38
2023-04-28T18:39:39.220Z,97593.22
2023-04-28T18:44:41.661Z,97605.00
2023-04-28T18:49:44.135Z,97607.81
2023-04-28T18:54:46.547Z,97601.78
2023-04-28T18:59:49.327Z,97600.53
2023-04-28T19:04:51.832Z,97608.34
2023-04-28T19:09:54.131Z,97616.28
2023-04-28T19:14:56.530Z,97624.88
2023-04-28T19:19:59.140Z,97627.97
2023-04-28T19:25:02.524Z,97635.97
2023-04-28T19:30:07.423Z,97629.03
2023-04-28T19:35:10.426Z,97639.47
2023-04-28T19:40:13.255Z,97646.03
2023-04-28T19:45:17.133Z,97648.44
2023-04-28T19:50:19.700Z,97644.41
2023-04-28T19:55:23.957Z,97644.06
2023-04-28T20:00:28.897Z,97647.47
2023-04-28T20:05:32.105Z,97647.22
2023-04-28T20:10:34.301Z,97652.88
2023-04-28T20:15:36.557Z,97654.25
2023-04-28T20:20:38.775Z,97661.47
2023-04-28T20:25:41.514Z,97668.63
2023-04-28T20:30:43.778Z,97648.84
2023-04-28T20:35:45.936Z,97643.88
2023-04-28T20:40:48.195Z,97644.06
2023-04-28T20:45:50.732Z,97645.00
2023-04-28T20:50:55.331Z,97647.38
2023-04-28T20:55:57.788Z,97649.44
2023-04-28T21:01:00.050Z,97660.97
2023-04-28T21:06:02.211Z,97662.09
2023-04-28T21:11:04.814Z,97683.28
2023-04-28T21:16:16.479Z,97678.00
2023-04-28T21:21:20.620Z,97693.88
2023-04-28T21:26:24.090Z,97681.41
2023-04-28T21:31:26.779Z,97680.09
2023-04-28T21:36:29.013Z,97675.75
2023-04-28T21:41:33.573Z,97680.69
2023-04-28T21:46:36.133Z,97687.22
2023-04-28T21:51:39.526Z,97675.81
2023-04-28T21:56:41.796Z,97679.78
2023-04-28T22:01:44.273Z,97676.16
2023-04-28T22:06:46.766Z,97683.91
2023-04-28T22:11:48.923Z,97678.63
2023-04-28T22:16:51.117Z,97670.13
2023-04-28T22:21:53.355Z,97675.63
2023-04-28T22:26:55.518Z,97675.63
2023-04-28T22:31:58.856Z,97676.22
2023-04-28T22:37:01.054Z,97676.25
2023-04-28T22:42:04.443Z,97679.59
2023-04-28T22:47:06.828Z,97678.19
2023-04-28T22:52:09.023Z,97673.50
2023-04-28T22:57:11.269Z,97676.88
2023-04-28T23:02:13.861Z,97669.56
2023-04-28T23:07:15.999Z,97668.94
2023-04-28T23:12:18.382Z,97668.19
2023-04-28T23:17:20.563Z,97675.59
2023-04-28T23:22:22.890Z,97678.47
2023-04-28T23:27:25.410Z,97670.09
2023-04-28T23:32:27.692Z,97674.94
2023-04-28T23:37:30.133Z,97676.47
2023-04-28T23:42:32.391Z,97684.69
2023-04-28T23:47:34.818Z,97670.09
2023-04-28T23:52:37.422Z,97670.56
2023-04-28T23:57:40.601Z,97658.84
